TimeCDT,TemperatureF,Dew PointF,Humidity,Sea Level PressureIn,VisibilityMPH,Wind Direction,Wind SpeedMPH,Gust SpeedMPH,PrecipitationIn,Events,Conditions,WindDirDegrees,DateUTC
12:15 AM,75.0,56.3,52,30.17,10.0,SSE,9.2,-,N/A,,Scattered Clouds,160,2013-09-12 05:15:00
12:35 AM,74.8,56.5,53,30.17,10.0,South,10.4,-,N/A,,Mostly Cloudy,170,2013-09-12 05:35:00
12:55 AM,74.5,56.5,53,30.17,10.0,South,9.2,-,N/A,,Overcast,170,2013-09-12 05:55:00
1:15 AM,73.9,56.3,54,30.17,10.0,South,8.1,-,N/A,,Mostly Cloudy,170,2013-09-12 06:15:00
1:35 AM,73.6,56.3,55,30.17,10.0,South,9.2,-,N/A,,Scattered Clouds,170,2013-09-12 06:35:00
1:55 AM,73.4,56.3,55,30.17,10.0,South,8.1,-,N/A,,Scattered Clouds,170,2013-09-12 06:55:00
2:15 AM,72.7,56.5,57,30.17,10.0,South,6.9,-,N/A,,Clear,170,2013-09-12 07:15:00
2:35 AM,71.8,56.5,58,30.17,10.0,South,5.8,-,N/A,,Clear,170,2013-09-12 07:35:00
2:55 AM,71.2,56.5,60,30.17,10.0,SSE,5.8,-,N/A,,Clear,150,2013-09-12 07:55:00
3:15 AM,71.4,56.3,59,30.17,10.0,SE,4.6,-,N/A,,Clear,140,2013-09-12 08:15:00
3:35 AM,70.3,56.3,61,30.17,10.0,SSE,4.6,-,N/A,,Scattered Clouds,160,2013-09-12 08:35:00
3:55 AM,71.4,55.9,58,30.17,10.0,SSE,8.1,-,N/A,,Mostly Cloudy,160,2013-09-12 08:55:00
4:15 AM,71.8,55.0,55,30.17,10.0,South,6.9,-,N/A,,Scattered Clouds,180,2013-09-12 09:15:00
4:35 AM,71.2,54.7,56,30.17,10.0,South,5.8,-,N/A,,Scattered Clouds,190,2013-09-12 09:35:00
4:55 AM,71.1,54.5,56,30.16,10.0,South,5.8,-,N/A,,Mostly Cloudy,180,2013-09-12 09:55:00
5:15 AM,71.6,54.0,54,30.16,10.0,South,6.9,-,N/A,,Overcast,180,2013-09-12 10:15:00
5:35 AM,71.6,53.8,53,30.17,10.0,South,8.1,-,N/A,,Overcast,180,2013-09-12 10:35:00
5:55 AM,70.5,53.8,55,30.17,10.0,South,6.9,-,N/A,,Overcast,170,2013-09-12 10:55:00
6:15 AM,69.8,53.6,56,30.17,10.0,SSE,5.8,-,N/A,,Overcast,150,2013-09-12 11:15:00
6:35 AM,68.5,54.1,60,30.18,10.0,SE,5.8,-,N/A,,Scattered Clouds,140,2013-09-12 11:35:00
6:55 AM,66.9,54.1,63,30.18,10.0,SSE,4.6,-,N/A,,Clear,160,2013-09-12 11:55:00
7:15 AM,66.2,53.8,64,30.18,10.0,South,4.6,-,N/A,,Clear,170,2013-09-12 12:15:00
7:35 AM,67.1,53.6,62,30.19,10.0,SSE,4.6,-,N/A,,Clear,150,2013-09-12 12:35:00
7:55 AM,68.4,53.8,60,30.19,10.0,SSE,4.6,-,N/A,,Clear,150,2013-09-12 12:55:00
8:15 AM,69.4,54.0,58,30.21,10.0,South,4.6,-,N/A,,Scattered Clouds,180,2013-09-12 13:15:00
8:35 AM,72.1,53.6,52,30.21,10.0,South,6.9,-,N/A,,Scattered Clouds,170,2013-09-12 13:35:00
8:55 AM,75.6,52.9,45,30.21,10.0,South,5.8,-,N/A,,Clear,180,2013-09-12 13:55:00
9:15 AM,78.1,53.8,43,30.21,10.0,South,8.1,-,N/A,,Clear,190,2013-09-12 14:15:00
9:35 AM,79.2,55.6,44,30.21,10.0,SW,9.2,-,N/A,,Clear,220,2013-09-12 14:35:00
9:55 AM,79.9,56.7,45,30.22,10.0,South,8.1,-,N/A,,Clear,190,2013-09-12 14:55:00
10:15 AM,81.3,54.9,40,30.22,10.0,South,8.1,-,N/A,,Clear,180,2013-09-12 15:15:00
10:35 AM,81.9,53.6,38,30.23,10.0,SSW,10.4,-,N/A,,Clear,210,2013-09-12 15:35:00
10:55 AM,82.9,52.9,35,30.22,10.0,South,12.7,16.1,N/A,,Clear,170,2013-09-12 15:55:00
11:15 AM,81.9,51.8,35,30.22,10.0,SW,8.1,-,N/A,,Clear,220,2013-09-12 16:15:00
11:35 AM,83.1,51.8,34,30.22,10.0,SSE,10.4,-,N/A,,Clear,160,2013-09-12 16:35:00
11:55 AM,83.5,51.3,33,30.22,10.0,SE,3.5,-,N/A,,Clear,140,2013-09-12 16:55:00
12:15 PM,83.7,52.2,34,30.21,10.0,South,9.2,-,N/A,,Scattered Clouds,190,2013-09-12 17:15:00
12:35 PM,84.7,52.0,32,30.21,10.0,SSW,10.4,-,N/A,,Scattered Clouds,200,2013-09-12 17:35:00
12:55 PM,85.3,51.4,31,30.20,10.0,SSW,5.8,-,N/A,,Scattered Clouds,200,2013-09-12 17:55:00
1:15 PM,85.3,51.6,31,30.19,10.0,South,6.9,-,N/A,,Clear,170,2013-09-12 18:15:00
1:35 PM,86.5,50.0,28,30.19,10.0,South,12.7,18.4,N/A,,Scattered Clouds,180,2013-09-12 18:35:00
1:55 PM,87.8,48.0,25,30.18,10.0,SE,11.5,24.2,N/A,,Scattered Clouds,140,2013-09-12 18:55:00
2:15 PM,86.4,44.2,23,30.17,10.0,South,12.7,18.4,N/A,,Scattered Clouds,170,2013-09-12 19:15:00
2:35 PM,88.2,45.9,23,30.16,10.0,SSE,16.1,24.2,N/A,,Clear,160,2013-09-12 19:35:00
2:55 PM,86.5,46.8,25,30.15,10.0,SSE,10.4,-,N/A,,Clear,150,2013-09-12 19:55:00
3:15 PM,87.6,47.1,25,30.15,10.0,SE,8.1,-,N/A,,Scattered Clouds,140,2013-09-12 20:15:00
3:35 PM,89.1,46.4,23,30.14,10.0,SSE,6.9,16.1,N/A,,Scattered Clouds,150,2013-09-12 20:35:00
3:55 PM,89.1,45.9,22,30.13,10.0,South,11.5,18.4,N/A,,Scattered Clouds,180,2013-09-12 20:55:00
4:15 PM,88.3,43.9,21,30.12,10.0,SSE,9.2,-,N/A,,Scattered Clouds,150,2013-09-12 21:15:00
4:35 PM,86.0,43.9,23,30.12,10.0,South,13.8,17.3,N/A,,Scattered Clouds,180,2013-09-12 21:35:00
4:55 PM,87.3,42.6,21,30.12,10.0,South,9.2,-,N/A,,Scattered Clouds,180,2013-09-12 21:55:00
5:15 PM,86.2,43.3,22,30.12,10.0,South,8.1,-,N/A,,Clear,180,2013-09-12 22:15:00
5:35 PM,85.6,44.1,23,30.11,10.0,SSE,5.8,10.4,N/A,,Clear,160,2013-09-12 22:35:00
5:55 PM,86.4,43.9,23,30.10,10.0,SSE,11.5,16.1,N/A,,Scattered Clouds,150,2013-09-12 22:55:00
6:15 PM,87.6,43.5,21,30.10,10.0,SE,10.4,16.1,N/A,,Scattered Clouds,130,2013-09-12 23:15:00
6:35 PM,87.6,44.6,22,30.11,10.0,SSE,10.4,-,N/A,,Scattered Clouds,150,2013-09-12 23:35:00
6:55 PM,85.6,46.6,26,30.12,10.0,SE,12.7,19.6,N/A,,Scattered Clouds,140,2013-09-12 23:55:00
7:15 PM,84.0,46.4,27,30.12,10.0,SSE,10.4,-,N/A,,Scattered Clouds,150,2013-09-13 00:15:00
7:35 PM,82.4,45.7,27,30.12,10.0,South,8.1,-,N/A,,Clear,170,2013-09-13 00:35:00
7:55 PM,79.5,46.2,31,30.13,10.0,SSE,5.8,-,N/A,,Clear,150,2013-09-13 00:55:00
8:15 PM,78.8,46.9,32,30.13,10.0,SE,6.9,-,N/A,,Clear,140,2013-09-13 01:15:00
8:35 PM,77.9,46.6,33,30.13,10.0,SE,6.9,-,N/A,,Clear,140,2013-09-13 01:35:00
8:55 PM,76.8,46.8,34,30.14,10.0,SE,5.8,-,N/A,,Clear,140,2013-09-13 01:55:00
9:15 PM,76.5,46.9,35,30.14,10.0,SE,8.1,-,N/A,,Clear,140,2013-09-13 02:15:00
9:35 PM,75.2,47.5,37,30.14,10.0,SE,6.9,-,N/A,,Clear,130,2013-09-13 02:35:00
9:55 PM,75.4,47.1,37,30.15,10.0,East,9.2,-,N/A,,Clear,90,2013-09-13 02:55:00
10:15 PM,74.3,56.5,54,30.16,10.0,East,15.0,-,N/A,,Clear,90,2013-09-13 03:15:00
10:35 PM,74.3,59.2,59,30.16,10.0,East,12.7,-,N/A,,Clear,100,2013-09-13 03:35:00
10:55 PM,73.6,59.9,62,30.16,10.0,East,12.7,-,N/A,,Clear,100,2013-09-13 03:55:00
11:15 PM,73.4,59.5,62,30.16,10.0,East,15.0,-,N/A,,Clear,100,2013-09-13 04:15:00
11:35 PM,72.7,59.5,63,30.16,10.0,East,17.3,20.7,N/A,,Clear,90,2013-09-13 04:35:00
11:55 PM,71.1,60.8,70,30.16,10.0,East,16.1,23.0,N/A,,Clear,100,2013-09-13 04:55:00